Timeline UpdatesTrip UpdatesNews PostsPvt PostsTravel TipsAdmin PostsConv PostsFollowed PostsChat RequestsBlog PostsPNR Posts

Disclaimer
Search
 
 
Thu Aug 28, 2014 18:34:16 ISTHomeTrainsΣChainsAtlasPNRForumGalleryNewsFAQTripsMembersLoginFeedback
No Recent News for this Train
Other Trains in the News **new
Latest...
Temporary Stop at Vindhyachal (BDL) for 2 min from 31/3/14-11/4/14 #1040164. ***Temporary Augmentation of 1 3AC coach from 4/4/14-27/6/14 #1043381
Wed Apr 02, 2014 (11:27PM)
⇐ Return Journey: Train# 15648

15647/Mumbai LTT-Guwahati Weekly Express

Nov 15 2013 (5:21PM)
Change Departure Station:
Change Arrival Station:
Post a Train Travel TipPost a Train Travel Tip **new
Post a Comment/Question/Picture/VideoPost a Comment/Question/Picture/Video
Pantry/Catering
✓ Pantry Car Avbl
✓ Catering Avbl
RSA - Rake Sharing
Rake/Coach Composition
2A-1; 3A-3; SL-12; GEN-3; PC-1; SLR-2 :: 22 COACH
Loco
ET-GHY =>ET WDMx
News    PNR    Forum    Time-Table    Availability    Fare Chart    Map    Arr/Dep History    Trips    Gallery    ΣChains    X/O    Timeline    
Travel Time: 30h 50m    37 halts    Distance: 1402 km    Avg Speed: 45 km/hr
Type: Mail/Express
Zone: NFR/Northeast Frontier
Departs @ 06:10 (Avg 14m late)
Platform# ???
      S
Chheoki Junction/COI 
Arrives @ 13:00 +1 night (Avg 1h 27m late)
Platform# ???
S      
Guwahati/GHY 

37 halts. 258 intermediate Stations between Chheoki Junction and Guwahati

Show ALL intermediate Stations  Show Old Time-Table

#CodeStation NameX/OArrivesAvgDepartsAvgHaltPFDay#KmSpeedElevZoneAddress
1LTTMumbai Lokmanya Tilak Terminus (5)  -08:05+051-1337.1737mCRMumbai - 400089, Maharashtra
2KYNKalyan Junction (8)X  08:35+1908:40+195m41-1300.44310mCRKalyan 421301, Maharashtra
3IGPIgatpuri (4)10:35+410:40+105m21-1218.696589mCRIgatpuri 422403, Maharashtra
4DVLDevlali (3)X  11:08+2511:10+262m11-1173.719561mCRDist. Nashik 422401, Maharashtra
5NKNasik Road (3)  11:28+1711:30+192m11-1167.979563mCRNashik 422101, Maharashtra
6MMRManmad Junction (6)  12:25+1312:30+135m11-1095.282580mCRManmad 423104, Maharashtra
7BSLBhusaval Junction (8)X  14:45+2114:55+2710m--1-911.076208mCRBhusaval 425201, Maharashtra
8BAUBurhanpur (2)X  15:38+3715:40+382m21-856.536269mCRBurhanpur, Madhya Pradesh
9KNWKhandwa Junction (5)  17:35+317:40+55m--1-787.6111310mCRKhandwa, Madhya Pradesh
10HDHarda (3)O  18:38+2418:40+242m--1-680.057289mWCRHarda, Madhya Pradesh
11ETItarsi Junction (7)X20:00+520:10+1910m--1-604.272329mWCRItarsi 461111, Madhya Pradesh
12PPIPipariya (3)  21:06+3721:08+372m--1-536.981338mWCRPiparia, Madhya Pradesh
13JBPJabalpur Junction (4)X  23:20+3823:30+4010m41-359.278416mWCRJabalpur, Madhya Pradesh
14KTEKatni Junction (6)X  00:40+4100:45+435m--2-268.369387mWCRKatni, Madhya Pradesh
15STASatna Junction (3)XO  02:10+3902:20+4210m--2-170.045322mWCRSatna, Madhya Pradesh
16COI»Chheoki Junction (3)»  06:05+906:10+145m--20.08096mNCRDist.-Allahabad, Uttar Pradesh
17MZPMirzapur (3)X  07:10+2507:15+255m--280.43888mNCRMirzapur, Uttar Pradesh
18MGSMughal Sarai Junction (8)  08:55+709:10+815m--2143.67583mECRMughalsarai 232101, Uttar Pradesh
19DLNDildarnagar Junction (2)  09:56+1609:58+162m--2201.38072mECRDildarnagar, Uttar Pradesh
20BXRBuxar (3)  10:25+1710:27+192m--2237.58967mECRBuxar, Bihar
21DUREDumraon (3)X  10:38+2510:40+252m--2253.98070mECRDumraon, Bihar
22ARAAra Junction (3)  11:19+2411:21+242m--2306.09163mECRarrah( 06182-233411), Bihar
23DNRDanapur (5)X  11:47+1:2011:57+1:3810m--2345.61158mECRKhagaul, Bihar
24PNBEPatna Junction (10)X  12:50+1:2213:00+1:3910m82355.03557mECRPatna 800001, Bihar
25PNCPatna Saheb (3)  13:17+2:0213:19+2:032m--2364.84359mECRPatna, Bihar
26FUTFatwa (6)  13:36+1:5913:38+2:042m--2377.16353mECRPatna, Bihar
27KOOKhusropur (2)  13:46+2:1213:48+2:172m--2385.56252mECRPatna, Bihar
28BKPBakhtiyarpur Junction (5)  14:02+2:3014:04+2:412m--2400.16151mECRPatna, Bihar
29BARHBarh (3)  14:22+2:4614:24+2:462m--2418.34349mECRBarh, Bihar
30MKAMokama Junction (4)X  15:00+2:3815:05+2:355m--2444.25648mECRPatna, Bihar
31HTZHathidah Junction (2)  15:14+2:3715:16+2:372m12452.66350mECRMusahari, Bihar
32BRYABarhiya (3)  15:25+2:4115:27+2:412m--2462.03547mECRBarahiya, Bihar
33LKRLuckeesarai Junction (2)  15:53+2:3015:55+2:302m--2477.1852mECRLakhisarai, Bihar
34KIULKiul Junction (5)X  16:05+1:5616:12+1:577m--2478.45153mECRDist. Lakhisarai, Bihar
35AHAAbhaipur (2)  16:39+2:4016:41+2:402m--2501.44252mERAbhaipur, Bihar
36JMPJamalpur Junction (4)X  17:12+2:3417:27+2:3115m--2523.36159mERJamalpur 06344-243101, Bihar
37BUPBariarpur (3)  17:38+2:4517:40+2:452m--2534.45442mERMunger, Bihar
38SGGSultanGanj (3)  18:00+2:4218:02+2:432m--2552.34542mERSultanganj, Bihar
39BGPBhagalpur Junction (6)  18:35+2:1218:50+2:0815m--2577.36949mERBhagalpur, Bihar
40CLGKahalgaon (2)X  19:16+2:4419:18+2:462m12607.43944mERBhagalpur, Bihar
41SBGSahibganj Junction (3)  20:25+2:3920:35+2:3710m12651.24538mERSahibganj, Jharkhand
42BHWBarharwa Junction (3)  21:48+2:3421:50+2:342m22705.74036mERBarharwa, Jharkhand
43NFKNew Farakka Junction (3)  22:17+2:3722:19+2:372m22723.73532mERDist - Murshidabad, West Bengal
44MLDTMalda Town (5)X  23:20+2:1123:35+2:0915m--2758.87430mERDist - Malda, West Bengal
45KNEKishanGanj (3)  01:35+2:5001:40+2:495m--3906.95052mNFRKishanganj, Bihar
46NJPNew Jalpaiguri Junction (8)X  03:25+2:3003:40+2:3015m--3994.249114mNFRCity-Siliguri . Dist-Jalpaiguri, West Bengal
47DQGDhupguri (2)  05:00+3:0405:05+3:065m--31059.66075mNFRDist - Jalpaiguri, West Bengal
48NCBNew Cooch Behar Junction (5)  06:05+2:5906:10+3:025m--31119.74547mNFRDist : Cooch Behar-736101, West Bengal
49NOQNew Alipurduar (2)  06:35+2:5706:40+2:585m--31138.45348mNFRDist - Alipurduar - 736121, West Bengal
50NBQNew Bongaigaon Junction (4)  08:40+2:5308:50+2:5710m--31245.14358mNFR783381., Assam
51BPRDBarpeta Road  09:52+2:5109:57+2:505m--31289.25049mNFRHowli, Assam
52RNYRangiya Junction (5)  11:15+2:4111:25+2:3610m--31354.03858mNFRRangia, Assam
53KYQKamakhya Junction (4)  12:30+2:2712:35+2:275m--31394.71755mNFRDist - KAMRUP, Assam
54GHY•Guwahati (7)•  13:00+1:27---31401.7-60mNFRGuwahati, Assam
Scroll to Top
Scroll to Bottom